Time;durP1;ratioP1;P1;durP2;ratioP2;P2;SDS_P1;SDS_P2;PMS_P1;PMS_P2;Temp;Humidity;BMP_temperature;BMP_pressure;BME280_temperature;BME280_humidity;BME280_pressure;Samples;Min_cycle;Max_cycle;Signal;HPM_P1;HPM_P2
2023/02/27 00:00:51;;;;;;;0.60;0.60;;;2.60;72.90;;;;;;5105307;27;20026;-68
2023/02/27 00:03:16;;;;;;;0.50;0.50;;;2.50;72.90;;;;;;5104459;27;20031;-68
2023/02/27 00:05:42;;;;;;;0.50;0.50;;;2.50;72.90;;;;;;5098411;28;20024;-68
2023/02/27 00:08:08;;;;;;;1.45;0.68;;;2.50;73.00;;;;;;5098592;28;20016;-68
2023/02/27 00:10:34;;;;;;;0.65;0.65;;;2.50;73.00;;;;;;5107291;27;20490;-67
2023/02/27 00:12:59;;;;;;;1.20;0.60;;;2.50;73.10;;;;;;5099831;28;20024;-67
2023/02/27 00:15:25;;;;;;;0.85;0.65;;;2.60;73.20;;;;;;5098407;28;20032;-67
2023/02/27 00:17:51;;;;;;;0.60;0.60;;;2.50;73.10;;;;;;5097211;28;20126;-67
2023/02/27 00:20:18;;;;;;;0.88;0.60;;;2.50;73.10;;;;;;5110384;28;20046;-68
2023/02/27 00:22:44;;;;;;;0.60;0.60;;;2.50;73.20;;;;;;5097393;28;20492;-67
2023/02/27 00:25:11;;;;;;;0.70;0.70;;;2.50;73.20;;;;;;5098150;28;20035;-67
2023/02/27 00:27:37;;;;;;;0.70;0.70;;;2.50;73.20;;;;;;5098306;28;20024;-67
2023/02/27 00:30:05;;;;;;;0.63;0.63;;;2.50;73.20;;;;;;5102438;28;20416;-69
2023/02/27 00:32:31;;;;;;;0.60;0.60;;;2.50;73.20;;;;;;5096286;27;20016;-68
2023/02/27 00:34:57;;;;;;;1.38;0.90;;;2.50;73.10;;;;;;5104726;28;20509;-67
2023/02/27 00:37:22;;;;;;;1.10;0.75;;;2.50;73.10;;;;;;5099151;28;20032;-68
2023/02/27 00:39:49;;;;;;;0.85;0.80;;;2.40;73.10;;;;;;5106233;28;20159;-67
2023/02/27 00:42:14;;;;;;;0.63;0.63;;;2.40;73.10;;;;;;5102761;28;20106;-66
2023/02/27 00:44:40;;;;;;;0.60;0.60;;;2.40;73.10;;;;;;5097573;28;20198;-67
2023/02/27 00:47:06;;;;;;;0.60;0.60;;;2.40;73.20;;;;;;5106831;28;20055;-69
2023/02/27 00:49:32;;;;;;;0.70;0.70;;;2.50;73.20;;;;;;5098828;27;20135;-68
2023/02/27 00:51:57;;;;;;;0.65;0.65;;;2.50;73.20;;;;;;5097211;28;20035;-67
2023/02/27 00:54:23;;;;;;;0.77;0.77;;;2.50;73.30;;;;;;5095825;28;20031;-68
2023/02/27 00:56:48;;;;;;;0.60;0.60;;;2.50;73.30;;;;;;5099618;28;20077;-67
2023/02/27 00:59:14;;;;;;;0.80;0.80;;;2.50;74.00;;;;;;5105292;28;20119;-68
2023/02/27 01:01:40;;;;;;;1.65;0.70;;;2.50;73.30;;;;;;5107554;27;20503;-68
2023/02/27 01:04:05;;;;;;;0.60;0.60;;;2.60;73.40;;;;;;5100849;28;20039;-67
2023/02/27 01:06:31;;;;;;;0.60;0.60;;;2.60;73.40;;;;;;5106521;27;20492;-67
2023/02/27 01:08:56;;;;;;;0.57;0.57;;;2.60;73.30;;;;;;5102220;27;20024;-67
2023/02/27 01:11:22;;;;;;;0.50;0.50;;;2.60;73.30;;;;;;5099527;27;20442;-68
2023/02/27 01:13:48;;;;;;;0.60;0.60;;;2.60;73.30;;;;;;5108667;27;20059;-66
2023/02/27 01:16:13;;;;;;;0.77;0.77;;;2.60;73.30;;;;;;5106741;27;20020;-67
2023/02/27 01:18:39;;;;;;;0.80;0.77;;;2.60;73.30;;;;;;5110120;27;20065;-68
2023/02/27 01:21:05;;;;;;;0.80;0.80;;;2.60;73.40;;;;;;5093421;27;20482;-69
2023/02/27 01:23:31;;;;;;;1.13;0.60;;;2.60;73.60;;;;;;5111302;27;20071;-68
2023/02/27 01:25:56;;;;;;;0.75;0.40;;;2.60;73.50;;;;;;5107889;27;20027;-67
2023/02/27 01:28:22;;;;;;;0.50;0.50;;;2.60;73.60;;;;;;5104566;27;20020;-68
2023/02/27 01:30:47;;;;;;;0.75;0.75;;;2.60;73.50;;;;;;5094884;28;20073;-68
2023/02/27 01:33:13;;;;;;;0.70;0.70;;;2.60;73.50;;;;;;5105040;28;20023;-67
2023/02/27 01:35:39;;;;;;;0.50;0.50;;;2.60;73.50;;;;;;5112369;27;20485;-67
2023/02/27 01:38:05;;;;;;;0.65;0.65;;;2.60;73.50;;;;;;5119772;27;20106;-66
2023/02/27 01:40:38;;;;;;;0.68;0.50;;;2.50;73.40;;;;;;5112464;28;20024;-67
2023/02/27 01:43:05;;;;;;;0.52;0.52;;;2.50;73.50;;;;;;5098165;28;20039;-68
2023/02/27 01:45:38;;;;;;;0.60;0.60;;;2.50;73.50;;;;;;5108892;27;20508;-68
2023/02/27 01:48:13;;;;;;;0.80;0.80;;;2.50;73.60;;;;;;5118808;27;20027;-67
2023/02/27 01:50:47;;;;;;;0.60;0.60;;;2.50;73.50;;;;;;5118387;27;20053;-68
2023/02/27 01:53:13;;;;;;;0.75;0.75;;;2.50;73.60;;;;;;5092887;28;20080;-68
2023/02/27 01:55:39;;;;;;;1.05;0.93;;;2.50;73.60;;;;;;5113690;27;20317;-67
2023/02/27 01:58:08;;;;;;;0.75;0.75;;;2.40;73.60;;;;;;5118140;27;20781;-65
2023/02/27 02:00:34;;;;;;;1.05;0.63;;;2.40;73.60;;;;;;5119817;27;20125;-68
2023/02/27 02:03:14;;;;;;;0.60;0.60;;;2.40;73.70;;;;;;5111196;28;20027;-67
2023/02/27 02:05:40;;;;;;;0.50;0.50;;;2.40;73.70;;;;;;5113435;27;20030;-68
2023/02/27 02:08:06;;;;;;;0.50;0.50;;;2.30;73.70;;;;;;5113545;27;20030;-68
2023/02/27 02:10:32;;;;;;;0.60;0.60;;;2.30;73.70;;;;;;5126216;27;20374;-67
2023/02/27 02:12:59;;;;;;;0.70;0.70;;;2.30;73.80;;;;;;5104945;27;20402;-67
2023/02/27 02:15:31;;;;;;;0.52;0.52;;;2.30;73.90;;;;;;5111569;27;20557;-66
2023/02/27 02:18:08;;;;;;;0.50;0.50;;;2.30;73.90;;;;;;5118137;27;20107;-67
2023/02/27 02:21:14;;;;;;;1.30;0.77;;;2.20;73.90;;;;;;5107712;28;20414;-68
2023/02/27 02:24:09;;;;;;;0.70;0.70;;;2.20;74.00;;;;;;5113461;27;20058;-67
2023/02/27 02:26:47;;;;;;;1.33;0.77;;;2.10;74.00;;;;;;5118185;27;20561;-67
2023/02/27 02:29:31;;;;;;;0.82;0.80;;;2.10;74.10;;;;;;5111257;27;20098;-68
2023/02/27 02:32:05;;;;;;;0.70;0.70;;;2.10;74.20;;;;;;5107035;28;20469;-68
2023/02/27 02:35:11;;;;;;;0.70;0.70;;;2.10;74.20;;;;;;5103031;27;20027;-68
2023/02/27 02:37:58;;;;;;;0.90;0.80;;;2.00;74.30;;;;;;5108319;27;20042;-67
2023/02/27 02:40:29;;;;;;;0.93;0.93;;;2.00;74.40;;;;;;5112814;27;20036;-66
2023/02/27 02:43:11;;;;;;;1.33;0.80;;;2.00;74.40;;;;;;5099379;28;20082;-67
2023/02/27 02:45:50;;;;;;;1.17;0.75;;;1.90;74.40;;;;;;5111313;27;20126;-66
2023/02/27 02:48:24;;;;;;;0.68;0.68;;;1.90;74.40;;;;;;5113591;27;20517;-66
2023/02/27 02:50:56;;;;;;;0.70;0.70;;;1.90;74.50;;;;;;5096354;28;20033;-67
2023/02/27 02:53:46;;;;;;;0.70;0.70;;;1.90;74.60;;;;;;5104161;27;20027;-67
2023/02/27 02:56:27;;;;;;;0.80;0.80;;;1.90;74.70;;;;;;5110165;27;20102;-66
2023/02/27 02:58:57;;;;;;;0.63;0.63;;;1.80;74.60;;;;;;5106874;28;20024;-66
2023/02/27 03:01:37;;;;;;;0.77;0.73;;;1.80;74.70;;;;;;5103074;27;20068;-67
2023/02/27 03:04:11;;;;;;;0.65;0.65;;;1.80;74.80;;;;;;5099089;27;20059;-66
2023/02/27 03:06:42;;;;;;;0.60;0.60;;;1.80;74.90;;;;;;5118570;27;20485;-67
2023/02/27 03:09:19;;;;;;;0.80;0.80;;;1.70;74.90;;;;;;5100282;27;20066;-67
2023/02/27 03:11:47;;;;;;;0.70;0.70;;;1.70;75.00;;;;;;5101894;27;20047;-66
2023/02/27 03:14:21;;;;;;;0.82;0.82;;;1.60;75.00;;;;;;5108428;27;20031;-68
2023/02/27 03:16:52;;;;;;;0.95;0.73;;;1.60;75.10;;;;;;5110344;28;20027;-67
2023/02/27 03:19:23;;;;;;;1.05;0.70;;;1.60;75.10;;;;;;5107348;27;20028;-67
2023/02/27 03:22:04;;;;;;;0.70;0.70;;;1.50;75.20;;;;;;5120520;27;20608;-67
2023/02/27 03:24:40;;;;;;;1.27;0.85;;;1.50;75.30;;;;;;5108142;27;20066;-66
2023/02/27 03:27:08;;;;;;;0.70;0.70;;;1.50;75.40;;;;;;5099871;27;20070;-67
2023/02/27 03:29:42;;;;;;;0.75;0.75;;;1.40;75.40;;;;;;5108455;27;20068;-67
2023/02/27 03:32:16;;;;;;;0.77;0.77;;;1.40;75.40;;;;;;5109276;27;20023;-67
2023/02/27 03:34:43;;;;;;;0.70;0.70;;;1.40;75.50;;;;;;5112739;27;20464;-68
2023/02/27 03:37:09;;;;;;;0.70;0.70;;;1.30;75.50;;;;;;5111145;27;20038;-68
2023/02/27 03:39:43;;;;;;;0.70;0.70;;;1.30;75.60;;;;;;5112503;27;20401;-67
2023/02/27 03:42:27;;;;;;;0.60;0.60;;;1.30;75.70;;;;;;5126368;27;20051;-69
2023/02/27 03:45:03;;;;;;;0.70;0.70;;;1.30;75.70;;;;;;5103251;28;20039;-68
2023/02/27 03:47:29;;;;;;;0.63;0.63;;;1.30;75.70;;;;;;5101353;27;20378;-69
2023/02/27 03:49:55;;;;;;;0.60;0.60;;;1.30;75.70;;;;;;5117914;27;20023;-68
2023/02/27 03:52:22;;;;;;;0.93;0.80;;;1.30;75.70;;;;;;5105456;27;20031;-67
2023/02/27 03:55:19;;;;;;;0.82;0.82;;;1.30;75.70;;;;;;5104597;28;20019;-69
2023/02/27 03:57:48;;;;;;;0.70;0.70;;;1.30;75.80;;;;;;5108938;27;20586;-69
2023/02/27 04:00:17;;;;;;;0.90;0.90;;;1.20;75.80;;;;;;5120181;27;20023;-68
2023/02/27 04:02:44;;;;;;;0.70;0.70;;;1.30;75.90;;;;;;5130502;27;20523;-68
2023/02/27 04:05:10;;;;;;;0.80;0.80;;;1.20;75.90;;;;;;5109899;27;20383;-68
2023/02/27 04:08:07;;;;;;;0.68;0.68;;;1.20;76.00;;;;;;5115616;27;20019;-68
2023/02/27 04:11:18;;;;;;;0.80;0.80;;;1.20;76.00;;;;;;5088810;28;20517;-68
2023/02/27 04:13:55;;;;;;;0.80;0.80;;;1.30;76.10;;;;;;5101186;28;20027;-68
2023/02/27 04:16:38;;;;;;;0.70;0.70;;;1.20;76.10;;;;;;5115169;28;20023;-66
2023/02/27 04:19:22;;;;;;;0.80;0.80;;;1.20;76.10;;;;;;5101175;28;20101;-66
2023/02/27 04:22:06;;;;;;;0.70;0.70;;;1.20;76.20;;;;;;5104762;28;20114;-65
2023/02/27 04:24:50;;;;;;;0.80;0.80;;;1.20;76.20;;;;;;5099013;28;20031;-66
2023/02/27 04:27:34;;;;;;;1.38;1.10;;;1.20;76.30;;;;;;5107960;28;20023;-66
2023/02/27 04:30:02;;;;;;;2.00;0.80;;;1.20;76.30;;;;;;5099891;28;20040;-66
2023/02/27 04:32:38;;;;;;;0.98;0.80;;;1.20;76.40;;;;;;5101338;28;20072;-65
2023/02/27 04:35:15;;;;;;;1.00;1.00;;;1.20;76.40;;;;;;5106929;28;20031;-66
2023/02/27 04:37:49;;;;;;;1.48;0.68;;;1.20;76.50;;;;;;5107145;28;20037;-66
2023/02/27 04:40:22;;;;;;;0.80;0.80;;;1.20;76.50;;;;;;5101223;27;20120;-66
2023/02/27 04:42:53;;;;;;;0.80;0.80;;;1.20;76.60;;;;;;5123123;27;20550;-65
2023/02/27 04:45:22;;;;;;;0.73;0.73;;;1.30;76.60;;;;;;5104096;28;20031;-64
2023/02/27 04:47:56;;;;;;;1.08;1.00;;;1.30;76.60;;;;;;5112364;28;20019;-64
2023/02/27 04:50:49;;;;;;;0.50;0.50;;;1.30;76.60;;;;;;5097362;27;20035;-65
2023/02/27 04:53:24;;;;;;;0.70;0.70;;;1.30;76.70;;;;;;5115918;27;20037;-65
2023/02/27 04:55:58;;;;;;;0.65;0.65;;;1.30;76.70;;;;;;5112242;27;20068;-64
2023/02/27 04:58:30;;;;;;;2.50;0.70;;;1.30;76.60;;;;;;5119158;27;20027;-66
2023/02/27 05:01:00;;;;;;;0.80;0.80;;;1.30;76.70;;;;;;5102917;28;20672;-67
2023/02/27 05:03:31;;;;;;;0.75;0.75;;;1.30;76.70;;;;;;5116883;27;20037;-66
2023/02/27 05:06:00;;;;;;;1.02;0.98;;;1.30;76.70;;;;;;5102860;28;20035;-66
2023/02/27 05:08:30;;;;;;;0.80;0.80;;;1.30;76.70;;;;;;5111055;28;20026;-66
2023/02/27 05:11:01;;;;;;;0.80;0.80;;;1.30;76.70;;;;;;5106932;27;20426;-66
2023/02/27 05:13:32;;;;;;;0.80;0.80;;;1.30;76.80;;;;;;5101555;27;20513;-65
2023/02/27 05:16:08;;;;;;;0.68;0.68;;;1.30;76.90;;;;;;5094759;28;20398;-68
2023/02/27 05:18:34;;;;;;;0.68;0.68;;;1.30;76.90;;;;;;5110589;27;20027;-66
2023/02/27 05:21:24;;;;;;;0.70;0.70;;;1.30;76.90;;;;;;5116409;27;20054;-66
2023/02/27 05:24:00;;;;;;;0.60;0.60;;;1.30;77.00;;;;;;5105568;27;20032;-68
2023/02/27 05:26:39;;;;;;;0.65;0.65;;;1.30;77.00;;;;;;5103352;27;20023;-68
2023/02/27 05:29:19;;;;;;;0.73;0.73;;;1.30;77.00;;;;;;5115061;27;20028;-66
2023/02/27 05:32:13;;;;;;;0.70;0.70;;;1.30;77.10;;;;;;5106267;27;20060;-66
2023/02/27 05:35:00;;;;;;;0.80;0.80;;;1.30;77.30;;;;;;5092611;28;20478;-68
2023/02/27 05:37:41;;;;;;;0.75;0.75;;;1.30;77.30;;;;;;5103412;27;20101;-68
2023/02/27 05:40:09;;;;;;;0.70;0.70;;;1.30;77.40;;;;;;5112288;27;20035;-66
2023/02/27 05:42:42;;;;;;;0.80;0.80;;;1.30;77.40;;;;;;5125708;27;20033;-66
2023/02/27 05:45:14;;;;;;;;;;;1.40;77.40;;;;;;5132283;27;20027;-67
2023/02/27 05:47:45;;;;;;;0.77;0.77;;;1.40;77.30;;;;;;5114398;27;20027;-66
2023/02/27 05:50:21;;;;;;;0.70;0.70;;;1.40;77.20;;;;;;5118538;27;20032;-66
2023/02/27 05:52:49;;;;;;;0.68;0.68;;;1.40;77.20;;;;;;5114745;27;20474;-66
2023/02/27 05:55:39;;;;;;;0.70;0.70;;;1.40;77.20;;;;;;5130240;27;20099;-64
2023/02/27 05:58:11;;;;;;;0.60;0.60;;;1.40;77.30;;;;;;5110888;27;20028;-66
2023/02/27 06:00:41;;;;;;;0.70;0.70;;;1.50;77.30;;;;;;5117527;27;20030;-66
2023/02/27 06:03:08;;;;;;;0.70;0.70;;;1.50;77.30;;;;;;5104350;28;20038;-67
2023/02/27 06:05:35;;;;;;;0.73;0.73;;;1.50;77.20;;;;;;5098840;28;20378;-67
2023/02/27 06:08:01;;;;;;;0.70;0.70;;;1.50;77.30;;;;;;5099489;28;20531;-67
2023/02/27 06:10:27;;;;;;;0.80;0.80;;;1.50;77.30;;;;;;5104484;28;20024;-67
2023/02/27 06:12:52;;;;;;;0.80;0.80;;;1.50;77.30;;;;;;5100965;28;20024;-66
2023/02/27 06:15:18;;;;;;;0.70;0.70;;;1.50;77.30;;;;;;5101053;28;20089;-66
2023/02/27 06:17:44;;;;;;;0.82;0.82;;;1.50;77.20;;;;;;5101485;28;20023;-67
2023/02/27 06:20:10;;;;;;;0.80;0.80;;;1.50;77.20;;;;;;5103591;28;20445;-67
2023/02/27 06:22:36;;;;;;;0.60;0.60;;;1.50;77.40;;;;;;5100160;28;20028;-67
2023/02/27 06:25:02;;;;;;;0.60;0.60;;;1.50;77.40;;;;;;5108790;28;20081;-67
2023/02/27 06:27:28;;;;;;;0.55;0.55;;;1.40;77.40;;;;;;5106149;27;20052;-67
2023/02/27 06:29:54;;;;;;;0.90;0.90;;;1.40;77.50;;;;;;5116400;27;20058;-68
2023/02/27 06:32:20;;;;;;;0.68;0.68;;;1.50;77.50;;;;;;5112666;27;20540;-67
2023/02/27 06:34:46;;;;;;;0.70;0.70;;;1.50;77.50;;;;;;5104881;28;20043;-65
2023/02/27 06:37:12;;;;;;;0.73;0.70;;;1.50;77.50;;;;;;5106850;27;20036;-68
2023/02/27 06:39:37;;;;;;;0.80;0.80;;;1.50;77.50;;;;;;5098111;27;20028;-66
2023/02/27 06:42:03;;;;;;;0.70;0.70;;;1.50;77.40;;;;;;5113186;27;20050;-67
2023/02/27 06:44:28;;;;;;;0.80;0.80;;;1.50;77.40;;;;;;5108713;27;20019;-67
2023/02/27 06:46:54;;;;;;;1.00;0.90;;;1.50;77.40;;;;;;5098951;28;20046;-67
2023/02/27 06:49:20;;;;;;;0.93;0.90;;;1.50;77.40;;;;;;5104358;27;20031;-67
2023/02/27 06:51:46;;;;;;;0.80;0.80;;;1.50;77.40;;;;;;5095763;28;20023;-66
2023/02/27 06:54:11;;;;;;;0.80;0.80;;;1.50;77.40;;;;;;5091045;28;20039;-67
2023/02/27 06:56:37;;;;;;;0.80;0.80;;;1.50;77.50;;;;;;5111203;27;20023;-66
2023/02/27 06:59:02;;;;;;;0.77;0.77;;;1.50;77.50;;;;;;5099323;27;20028;-67
2023/02/27 07:01:28;;;;;;;0.82;0.82;;;1.50;77.50;;;;;;5098457;28;20053;-66
2023/02/27 07:03:53;;;;;;;0.77;0.77;;;1.60;77.40;;;;;;5103138;27;20048;-66
2023/02/27 07:06:19;;;;;;;0.80;0.80;;;1.60;77.40;;;;;;5100528;28;20027;-66
2023/02/27 07:08:44;;;;;;;1.38;0.93;;;1.60;77.40;;;;;;5099370;27;20031;-64
2023/02/27 07:11:10;;;;;;;0.90;0.90;;;1.60;77.40;;;;;;5104174;27;20622;-69
2023/02/27 07:13:36;;;;;;;0.88;0.88;;;1.70;77.40;;;;;;5106221;28;20297;-67
2023/02/27 07:16:02;;;;;;;1.05;0.90;;;1.70;77.20;;;;;;5094778;28;20046;-69
2023/02/27 07:18:27;;;;;;;1.65;0.93;;;1.70;77.10;;;;;;5103277;28;20480;-68
2023/02/27 07:20:54;;;;;;;0.70;0.70;;;1.70;77.10;;;;;;5100584;28;20039;-69
2023/02/27 07:23:20;;;;;;;2.58;1.10;;;1.70;77.10;;;;;;5105199;28;20410;-69
2023/02/27 07:25:47;;;;;;;1.08;0.82;;;1.70;77.10;;;;;;5109728;27;20024;-69
2023/02/27 07:28:13;;;;;;;0.60;0.60;;;1.80;77.20;;;;;;5096020;28;20020;-68
2023/02/27 07:30:38;;;;;;;0.95;0.80;;;1.80;77.20;;;;;;5103095;27;20020;-68
2023/02/27 07:33:04;;;;;;;1.00;0.82;;;1.90;77.80;;;;;;5100398;28;20035;-69
2023/02/27 07:35:30;;;;;;;0.60;0.60;;;1.90;77.10;;;;;;5105646;28;20028;-69
2023/02/27 07:37:56;;;;;;;0.80;0.80;;;2.00;77.00;;;;;;5099317;27;20507;-67
2023/02/27 07:40:21;;;;;;;0.90;0.90;;;2.00;77.00;;;;;;5097755;27;20031;-68
2023/02/27 07:42:48;;;;;;;0.70;0.70;;;2.10;77.00;;;;;;5102860;27;20031;-67
2023/02/27 07:45:13;;;;;;;0.80;0.80;;;2.10;76.80;;;;;;5101110;28;20171;-67
2023/02/27 07:47:39;;;;;;;0.70;0.70;;;2.20;76.80;;;;;;5101734;27;20509;-68
2023/02/27 07:50:05;;;;;;;0.80;0.80;;;2.20;76.70;;;;;;5115315;27;20027;-69
2023/02/27 07:52:31;;;;;;;0.80;0.80;;;2.30;76.70;;;;;;5104927;27;20461;-68
2023/02/27 07:54:56;;;;;;;0.60;0.60;;;2.40;76.60;;;;;;5104821;27;20040;-69
2023/02/27 07:57:22;;;;;;;1.25;0.90;;;2.40;76.50;;;;;;5107214;27;20033;-66
2023/02/27 07:59:48;;;;;;;0.68;0.68;;;2.50;76.40;;;;;;5105496;27;20553;-67
2023/02/27 08:02:13;;;;;;;0.82;0.82;;;2.60;76.40;;;;;;5098351;27;20027;-67
2023/02/27 08:04:39;;;;;;;0.60;0.60;;;2.60;76.30;;;;;;5106172;27;20699;-67
2023/02/27 08:07:04;;;;;;;0.80;0.80;;;2.70;76.20;;;;;;5102001;28;20023;-67
2023/02/27 08:09:30;;;;;;;0.75;0.75;;;2.70;76.10;;;;;;5100991;28;20028;-66
2023/02/27 08:11:57;;;;;;;1.55;0.60;;;2.80;76.70;;;;;;5089994;27;20027;-68
2023/02/27 08:14:22;;;;;;;0.50;0.50;;;2.90;76.00;;;;;;5100928;28;20046;-65
2023/02/27 08:16:48;;;;;;;0.70;0.70;;;2.90;75.80;;;;;;5096440;28;20431;-70
2023/02/27 08:19:14;;;;;;;0.70;0.70;;;3.00;75.90;;;;;;5101643;28;20555;-67
2023/02/27 08:21:40;;;;;;;0.93;0.70;;;3.00;75.80;;;;;;5115169;27;20106;-67
2023/02/27 08:24:05;;;;;;;0.70;0.70;;;3.10;75.70;;;;;;5095989;28;20114;-67
2023/02/27 08:26:31;;;;;;;0.60;0.60;;;3.20;75.60;;;;;;5105228;28;20027;-65
2023/02/27 08:28:56;;;;;;;0.80;0.80;;;3.20;75.50;;;;;;5106279;27;20052;-67
2023/02/27 08:31:22;;;;;;;0.90;0.90;;;3.20;75.00;;;;;;5097107;28;20020;-67
2023/02/27 08:33:48;;;;;;;1.02;1.02;;;3.30;75.40;;;;;;5100555;28;20019;-68
2023/02/27 08:36:14;;;;;;;0.70;0.70;;;3.40;75.30;;;;;;5094977;28;20115;-67
2023/02/27 08:38:39;;;;;;;0.60;0.60;;;3.40;75.20;;;;;;5101036;28;20058;-68
2023/02/27 08:41:05;;;;;;;0.75;0.75;;;3.50;75.10;;;;;;5100905;28;20160;-66
2023/02/27 08:43:30;;;;;;;0.77;0.70;;;3.60;75.00;;;;;;5096434;28;20029;-66
2023/02/27 08:45:56;;;;;;;0.70;0.70;;;3.70;74.90;;;;;;5100152;28;20065;-67
2023/02/27 08:48:23;;;;;;;1.30;0.80;;;3.80;74.90;;;;;;5103225;28;20561;-68
2023/02/27 08:50:49;;;;;;;1.55;1.08;;;3.80;74.70;;;;;;5100290;28;20024;-67
2023/02/27 08:53:15;;;;;;;1.58;1.00;;;3.80;73.40;;;;;;5102103;27;20027;-68
2023/02/27 08:55:41;;;;;;;1.33;0.80;;;3.80;74.30;;;;;;5096522;28;20032;-67
2023/02/27 08:58:07;;;;;;;1.10;0.80;;;3.90;74.00;;;;;;5106829;28;20028;-66
2023/02/27 09:00:33;;;;;;;0.98;0.90;;;3.90;74.00;;;;;;5096601;28;20031;-67
2023/02/27 09:03:00;;;;;;;1.58;0.90;;;4.00;74.20;;;;;;5106827;27;20039;-67
2023/02/27 09:05:26;;;;;;;2.42;0.93;;;4.10;74.00;;;;;;5097664;28;20031;-65
2023/02/27 09:07:51;;;;;;;0.70;0.70;;;4.10;73.90;;;;;;5098385;28;20398;-67
2023/02/27 09:10:17;;;;;;;0.82;0.50;;;4.20;73.80;;;;;;5097082;28;20024;-67
2023/02/27 09:12:43;;;;;;;0.55;0.55;;;4.20;73.70;;;;;;5109200;28;20085;-67
2023/02/27 09:15:10;;;;;;;0.70;0.70;;;4.30;73.60;;;;;;5099896;28;20557;-67
2023/02/27 09:17:36;;;;;;;0.85;0.85;;;4.40;72.60;;;;;;5097484;27;20130;-67
2023/02/27 09:20:03;;;;;;;1.35;0.80;;;4.40;72.50;;;;;;5093708;28;20553;-68
2023/02/27 09:22:29;;;;;;;2.17;0.82;;;4.40;72.30;;;;;;5100805;28;20034;-67
2023/02/27 09:24:55;;;;;;;0.70;0.70;;;4.40;71.70;;;;;;5100499;27;20015;-67
2023/02/27 09:27:22;;;;;;;0.63;0.63;;;4.40;72.70;;;;;;5103829;27;20036;-68
2023/02/27 09:29:54;;;;;;;1.55;0.80;;;4.50;72.80;;;;;;5100306;28;20020;-67
2023/02/27 09:32:22;;;;;;;1.63;0.70;;;4.60;72.80;;;;;;5101360;27;20031;-68
2023/02/27 09:34:48;;;;;;;0.65;0.65;;;4.60;72.30;;;;;;5103624;27;20085;-68
2023/02/27 09:37:15;;;;;;;1.27;0.80;;;4.70;72.50;;;;;;5105125;27;20156;-67
2023/02/27 09:39:41;;;;;;;0.75;0.65;;;4.80;72.40;;;;;;5105412;27;20506;-68
2023/02/27 09:42:14;;;;;;;0.60;0.60;;;4.80;72.00;;;;;;5104708;27;20160;-68
2023/02/27 09:44:45;;;;;;;1.40;0.93;;;4.80;72.20;;;;;;5098172;28;20055;-67
2023/02/27 09:47:29;;;;;;;0.60;0.60;;;4.90;72.10;;;;;;5103219;27;20017;-65
2023/02/27 09:50:30;;;;;;;1.05;0.80;;;4.90;71.10;;;;;;5095632;28;20081;-68
2023/02/27 09:52:56;;;;;;;1.42;0.93;;;5.00;71.30;;;;;;5100900;28;20040;-68
2023/02/27 09:55:23;;;;;;;1.80;1.00;;;5.00;71.00;;;;;;5105021;27;20466;-66
2023/02/27 09:58:03;;;;;;;1.40;0.80;;;5.00;68.80;;;;;;5099674;28;20040;-67
2023/02/27 10:00:46;;;;;;;2.13;0.77;;;5.00;69.50;;;;;;5099905;27;20020;-67
2023/02/27 10:03:40;;;;;;;0.95;0.70;;;5.10;70.30;;;;;;5101666;27;20376;-67
2023/02/27 10:06:08;;;;;;;0.80;0.80;;;5.10;69.60;;;;;;5102915;27;20032;-66
2023/02/27 10:09:00;;;;;;;2.67;1.20;;;5.20;70.20;;;;;;5099924;27;20443;-68
2023/02/27 10:11:38;;;;;;;1.38;0.77;;;5.30;69.70;;;;;;5100280;27;20027;-69
2023/02/27 10:14:11;;;;;;;1.17;0.80;;;5.40;70.10;;;;;;5102527;28;20028;-66
2023/02/27 10:16:38;;;;;;;0.55;0.55;;;5.50;69.70;;;;;;5099464;28;20016;-68
2023/02/27 10:19:14;;;;;;;0.50;0.50;;;5.50;69.70;;;;;;5102023;27;20108;-67
2023/02/27 10:21:44;;;;;;;0.80;0.60;;;5.60;69.80;;;;;;5096478;27;20024;-66
2023/02/27 10:24:37;;;;;;;1.08;0.75;;;5.60;69.70;;;;;;5103054;27;20016;-68
2023/02/27 10:27:05;;;;;;;1.42;1.00;;;5.70;69.70;;;;;;5106762;27;20068;-66
2023/02/27 10:29:38;;;;;;;0.65;0.65;;;5.70;69.00;;;;;;5099465;27;20024;-66
2023/02/27 10:32:19;;;;;;;2.00;0.77;;;5.80;69.10;;;;;;5103393;28;20032;-70
2023/02/27 10:34:51;;;;;;;0.68;0.68;;;5.80;69.00;;;;;;5099012;28;20047;-67
2023/02/27 10:37:19;;;;;;;0.73;0.70;;;5.90;68.90;;;;;;5106255;27;20107;-67
2023/02/27 10:39:49;;;;;;;0.70;0.70;;;5.90;68.00;;;;;;5106662;27;20269;-66
2023/02/27 10:42:16;;;;;;;0.77;0.77;;;6.00;68.40;;;;;;5108375;28;20032;-67
2023/02/27 10:44:43;;;;;;;1.05;0.75;;;6.00;68.00;;;;;;5108272;27;20024;-69
2023/02/27 10:47:14;;;;;;;1.27;0.70;;;6.00;67.90;;;;;;5107844;27;20028;-68
2023/02/27 10:49:41;;;;;;;0.73;0.70;;;6.00;67.70;;;;;;5105291;27;20047;-67
2023/02/27 10:52:11;;;;;;;1.70;0.98;;;6.00;67.00;;;;;;5106411;27;20025;-66
2023/02/27 10:54:37;;;;;;;0.85;0.70;;;6.00;67.40;;;;;;5106720;27;20028;-67
2023/02/27 10:57:17;;;;;;;1.08;0.80;;;6.10;67.30;;;;;;5097727;28;20027;-69
2023/02/27 11:00:08;;;;;;;0.82;0.70;;;6.20;65.30;;;;;;5103556;28;20027;-67
2023/02/27 11:02:42;;;;;;;0.80;0.80;;;6.00;63.70;;;;;;5100804;27;20479;-66
2023/02/27 11:05:28;;;;;;;0.98;0.70;;;6.10;64.80;;;;;;5103533;27;20084;-66
2023/02/27 11:07:56;;;;;;;0.63;0.57;;;6.20;65.10;;;;;;5104794;27;20042;-66
2023/02/27 11:10:27;;;;;;;0.60;0.60;;;6.30;66.00;;;;;;5097653;28;20019;-66
2023/02/27 11:12:59;;;;;;;0.60;0.60;;;6.40;66.20;;;;;;5098812;28;20048;-67
2023/02/27 11:15:30;;;;;;;0.50;0.50;;;6.60;66.10;;;;;;5101018;28;20547;-68
2023/02/27 11:18:20;;;;;;;0.73;0.60;;;6.70;65.80;;;;;;5103831;28;20117;-67
2023/02/27 11:20:49;;;;;;;0.60;0.60;;;6.70;64.70;;;;;;5101732;27;20657;-67
2023/02/27 11:23:16;;;;;;;0.80;0.80;;;6.70;64.70;;;;;;5104738;28;20027;-67
2023/02/27 11:25:43;;;;;;;0.70;0.65;;;6.70;64.30;;;;;;5107648;28;20046;-67
2023/02/27 11:28:25;;;;;;;2.03;0.77;;;6.70;63.70;;;;;;5105367;27;20049;-66
2023/02/27 11:31:19;;;;;;;0.73;0.65;;;6.70;63.40;;;;;;5100499;27;20032;-67
2023/02/27 11:33:52;;;;;;;0.55;0.55;;;6.70;61.20;;;;;;5105495;27;20027;-67
2023/02/27 11:36:18;;;;;;;1.55;0.80;;;6.70;63.00;;;;;;5112359;27;20502;-68
2023/02/27 11:38:53;;;;;;;0.55;0.55;;;6.70;63.00;;;;;;5103320;27;20039;-68
2023/02/27 11:41:28;;;;;;;0.52;0.52;;;6.80;63.70;;;;;;5097820;28;20049;-68
2023/02/27 11:43:56;;;;;;;1.13;0.80;;;6.90;63.70;;;;;;5104125;28;20471;-68
2023/02/27 11:46:24;;;;;;;1.67;0.70;;;7.00;63.60;;;;;;5109234;27;20057;-68
2023/02/27 11:49:01;;;;;;;0.90;0.60;;;6.90;62.00;;;;;;5103558;28;20390;-68
2023/02/27 11:51:39;;;;;;;0.50;0.50;;;6.90;62.90;;;;;;5104942;27;20023;-67
2023/02/27 11:54:12;;;;;;;0.88;0.60;;;7.10;62.70;;;;;;5104682;27;20049;-68
2023/02/27 11:56:42;;;;;;;0.70;0.70;;;7.10;62.20;;;;;;5105748;27;20028;-67
2023/02/27 11:59:11;;;;;;;0.70;0.70;;;7.20;61.50;;;;;;5104478;28;20035;-67
2023/02/27 12:02:04;;;;;;;0.50;0.50;;;7.10;62.10;;;;;;5100106;28;20627;-68
2023/02/27 12:04:51;;;;;;;0.57;0.57;;;7.10;62.00;;;;;;5102137;27;20084;-67
2023/02/27 12:07:28;;;;;;;0.90;0.63;;;7.20;61.80;;;;;;5106409;28;20106;-67
2023/02/27 12:10:12;;;;;;;0.60;0.60;;;7.20;61.50;;;;;;5101672;27;20031;-68
2023/02/27 12:13:05;;;;;;;0.65;0.65;;;7.30;62.30;;;;;;5101376;28;20377;-66
2023/02/27 12:15:49;;;;;;;;;;;7.40;61.50;;;;;;5101181;28;20036;-68
2023/02/27 12:18:20;;;;;;;0.90;0.80;;;7.40;61.50;;;;;;5107677;28;19994;-67
2023/02/27 12:21:10;;;;;;;0.93;0.70;;;7.40;61.60;;;;;;5102952;28;20024;-69
2023/02/27 12:24:22;;;;;;;0.77;0.77;;;7.20;61.90;;;;;;5107318;28;20034;-66
2023/02/27 12:27:10;;;;;;;0.60;0.60;;;7.30;62.40;;;;;;5072187;28;20053;-68
2023/02/27 12:29:42;;;;;;;1.88;0.80;;;7.40;62.40;;;;;;5101173;28;20039;-67
2023/02/27 12:32:20;;;;;;;;;;;7.60;62.20;;;;;;5104692;28;20042;-68
2023/02/27 12:35:24;;;;;;;1.25;0.90;;;7.70;60.60;;;;;;5109254;28;19918;-67
2023/02/27 12:37:50;;;;;;;2.22;0.90;;;7.60;59.10;;;;;;5085725;28;20074;-67
2023/02/27 12:40:18;;;;;;;2.25;0.90;;;7.50;59.50;;;;;;5106529;28;20071;-67
2023/02/27 12:43:07;;;;;;;1.80;0.80;;;7.60;58.50;;;;;;5106012;27;20051;-67
2023/02/27 12:45:53;;;;;;;0.70;0.70;;;7.60;59.30;;;;;;5096244;28;20032;-66
2023/02/27 12:48:44;;;;;;;0.85;0.80;;;7.80;60.00;;;;;;5100816;28;20088;-66
2023/02/27 12:51:18;;;;;;;0.80;0.70;;;8.10;60.00;;;;;;5105949;28;20624;-68
2023/02/27 12:53:53;;;;;;;1.55;0.80;;;8.10;60.20;;;;;;5108545;28;20091;-65
2023/02/27 12:56:22;;;;;;;0.70;0.70;;;8.10;59.60;;;;;;5098899;28;20035;-68
2023/02/27 12:59:22;;;;;;;0.88;0.80;;;8.00;60.60;;;;;;5107798;28;20027;-67
2023/02/27 13:01:57;;;;;;;2.20;0.70;;;7.90;60.80;;;;;;5103852;28;20035;-65
2023/02/27 13:04:52;;;;;;;0.65;0.60;;;7.90;61.10;;;;;;5101642;28;20445;-68
2023/02/27 13:07:30;;;;;;;1.52;0.85;;;7.80;61.00;;;;;;5109724;27;20130;-68
2023/02/27 13:10:02;;;;;;;0.70;0.70;;;7.60;59.90;;;;;;5106291;28;20082;-68
2023/02/27 13:12:42;;;;;;;0.80;0.80;;;7.60;61.70;;;;;;5103554;28;20019;-68
2023/02/27 13:15:29;;;;;;;0.77;0.77;;;7.60;60.80;;;;;;5106833;28;20035;-67
2023/02/27 13:18:29;;;;;;;0.70;0.70;;;7.80;62.20;;;;;;5107484;28;20019;-68
2023/02/27 13:21:06;;;;;;;2.60;1.00;;;7.90;61.00;;;;;;5110058;27;20435;-68
2023/02/27 13:23:46;;;;;;;1.00;0.80;;;7.80;59.50;;;;;;5111149;27;20485;-68